createdAt,value
2023-01-11T00:02:03.550Z,33.78
2023-01-11T00:04:32.024Z,34.63
2023-01-11T00:07:00.296Z,34.22
2023-01-11T00:09:28.607Z,32.47
2023-01-11T00:11:56.850Z,33.40
2023-01-11T00:14:25.759Z,30.10
2023-01-11T00:16:53.789Z,32.83
2023-01-11T00:19:22.227Z,31.42
2023-01-11T00:21:50.630Z,33.58
2023-01-11T00:24:18.874Z,33.92
2023-01-11T00:26:47.042Z,29.27
2023-01-11T00:29:15.096Z,26.52
2023-01-11T00:31:43.505Z,34.00
2023-01-11T00:34:11.508Z,31.80
2023-01-11T00:36:39.531Z,36.20
2023-01-11T00:39:07.739Z,35.30
2023-01-11T00:41:54.456Z,31.13
2023-01-11T00:44:41.563Z,37.03
2023-01-11T00:47:37.131Z,31.77
2023-01-11T00:50:06.149Z,37.13
2023-01-11T00:52:34.074Z,38.53
2023-01-11T00:55:01.991Z,38.50
2023-01-11T00:57:30.358Z,37.80
2023-01-11T00:59:58.455Z,33.08
2023-01-11T01:02:26.535Z,37.90
2023-01-11T01:04:55.949Z,37.45
2023-01-11T01:07:23.998Z,33.28
2023-01-11T01:09:51.948Z,38.60
2023-01-11T01:12:38.755Z,32.35
2023-01-11T01:15:10.463Z,36.25
2023-01-11T01:20:09.019Z,37.00
2023-01-11T01:22:37.605Z,31.65
2023-01-11T01:25:06.122Z,30.38
2023-01-11T01:27:34.435Z,38.42
2023-01-11T01:30:02.325Z,35.95
2023-01-11T01:32:30.345Z,34.38
2023-01-11T01:34:58.965Z,42.83
2023-01-11T01:37:27.625Z,35.75
2023-01-11T01:39:55.831Z,38.60
2023-01-11T01:42:25.638Z,35.15
2023-01-11T01:45:00.658Z,41.15
2023-01-11T01:47:29.304Z,40.60
2023-01-11T01:50:01.557Z,38.47
2023-01-11T01:52:31.192Z,42.45
2023-01-11T01:55:05.660Z,38.42
2023-01-11T01:57:37.747Z,41.47
2023-01-11T02:00:10.643Z,45.70
2023-01-11T02:02:41.336Z,44.65
2023-01-11T02:05:12.187Z,49.83
2023-01-11T02:07:42.146Z,43.33
2023-01-11T02:10:22.814Z,45.88
2023-01-11T02:13:03.562Z,38.15
2023-01-11T02:15:32.503Z,41.40
2023-01-11T02:18:00.898Z,44.95
2023-01-11T02:21:17.855Z,45.38
2023-01-11T02:24:04.218Z,45.97
2023-01-11T02:26:47.700Z,39.35
2023-01-11T02:29:28.413Z,42.55
2023-01-11T02:32:15.032Z,46.42
2023-01-11T02:35:33.669Z,42.05
2023-01-11T02:38:04.813Z,42.65
2023-01-11T02:41:26.807Z,53.15
2023-01-11T02:44:31.708Z,52.25
2023-01-11T02:47:07.191Z,43.38
2023-01-11T02:49:57.363Z,46.75
2023-01-11T02:52:57.617Z,45.83
2023-01-11T02:55:32.868Z,48.20
2023-01-11T02:58:03.855Z,43.85
2023-01-11T03:00:34.054Z,45.80
2023-01-11T03:03:30.471Z,47.67
2023-01-11T03:06:14.431Z,52.53
2023-01-11T03:08:57.427Z,48.28
2023-01-11T03:12:54.385Z,47.55
2023-01-11T03:16:00.319Z,48.95
2023-01-11T03:18:42.288Z,56.72
2023-01-11T03:21:19.285Z,60.00
2023-01-11T03:24:11.124Z,62.75
2023-01-11T03:27:31.177Z,51.42
2023-01-11T03:30:26.979Z,47.95
2023-01-11T03:33:17.091Z,53.65
2023-01-11T03:36:21.796Z,54.22
2023-01-11T03:39:13.331Z,45.65
2023-01-11T03:41:43.730Z,49.33
2023-01-11T03:44:15.015Z,50.03
2023-01-11T03:47:14.479Z,46.40
2023-01-11T03:49:50.563Z,44.10
2023-01-11T03:52:28.072Z,49.33
2023-01-11T03:54:59.287Z,43.75
2023-01-11T03:57:40.697Z,48.80
2023-01-11T04:00:10.708Z,45.42
2023-01-11T04:02:42.552Z,44.30
2023-01-11T04:05:11.913Z,41.58
2023-01-11T04:07:39.875Z,43.55
2023-01-11T04:10:09.791Z,46.67
2023-01-11T04:12:37.760Z,47.65
2023-01-11T04:15:06.352Z,47.30
2023-01-11T04:17:34.477Z,44.20
2023-01-11T04:20:02.809Z,47.50
2023-01-11T04:22:30.865Z,43.78
2023-01-11T04:24:59.921Z,43.45
2023-01-11T04:27:27.792Z,41.05
2023-01-11T04:29:55.709Z,48.60
2023-01-11T04:32:24.352Z,45.03
2023-01-11T04:34:53.091Z,38.90
2023-01-11T04:37:21.033Z,46.35
2023-01-11T04:39:49.162Z,41.45
2023-01-11T04:42:20.191Z,44.00
2023-01-11T04:44:50.309Z,46.13
2023-01-11T04:47:21.707Z,47.30
2023-01-11T04:49:50.279Z,47.63
2023-01-11T04:52:20.839Z,48.35
2023-01-11T04:54:52.446Z,48.75
2023-01-11T04:57:21.690Z,45.28
2023-01-11T04:59:49.815Z,50.58
2023-01-11T05:02:18.626Z,43.90
2023-01-11T05:04:47.029Z,41.85
2023-01-11T05:07:18.081Z,39.75
2023-01-11T05:09:47.144Z,38.67
2023-01-11T05:12:15.380Z,46.78
2023-01-11T05:14:43.221Z,43.75
2023-01-11T05:17:15.404Z,47.95
2023-01-11T05:19:43.719Z,45.90
2023-01-11T05:22:11.626Z,49.92
2023-01-11T05:24:39.811Z,51.33
2023-01-11T05:27:08.054Z,48.35
2023-01-11T05:29:36.485Z,43.53
2023-01-11T05:32:05.045Z,49.58
2023-01-11T05:34:33.099Z,40.65
2023-01-11T05:37:01.210Z,43.20
2023-01-11T05:39:30.348Z,45.63
2023-01-11T05:41:58.788Z,43.47
2023-01-11T05:44:45.418Z,43.35
2023-01-11T05:47:14.316Z,42.30
2023-01-11T05:49:42.732Z,52.83
2023-01-11T05:52:10.906Z,45.83
2023-01-11T05:54:39.709Z,45.60
2023-01-11T05:57:11.609Z,43.00
2023-01-11T05:59:40.033Z,46.33
2023-01-11T06:02:08.719Z,42.90
2023-01-11T06:04:36.926Z,45.72
2023-01-11T06:07:07.578Z,48.70
2023-01-11T06:09:35.781Z,48.85
2023-01-11T06:12:03.938Z,47.03
2023-01-11T06:14:32.247Z,48.35
2023-01-11T06:17:02.941Z,57.83
2023-01-11T06:19:30.998Z,48.87
2023-01-11T06:21:59.617Z,48.90
2023-01-11T06:24:27.662Z,50.83
2023-01-11T06:26:56.050Z,47.53
2023-01-11T06:29:24.562Z,41.92
2023-01-11T06:31:52.452Z,45.20
2023-01-11T06:34:20.615Z,44.50
2023-01-11T06:36:49.336Z,42.92
2023-01-11T06:39:18.342Z,43.22
2023-01-11T06:41:46.394Z,43.45
2023-01-11T06:44:15.222Z,46.53
2023-01-11T06:46:43.676Z,47.90
2023-01-11T06:49:12.241Z,44.33
2023-01-11T06:51:40.569Z,44.70
2023-01-11T06:54:08.901Z,39.20
2023-01-11T06:56:36.903Z,37.22
2023-01-11T06:59:05.323Z,38.50
2023-01-11T07:01:33.515Z,39.60
2023-01-11T07:04:01.940Z,41.67
2023-01-11T07:06:32.601Z,39.58
2023-01-11T07:09:00.797Z,36.28
2023-01-11T07:11:28.686Z,41.40
2023-01-11T07:13:56.937Z,42.22
2023-01-11T07:16:24.885Z,38.45
2023-01-11T07:18:53.375Z,43.63
2023-01-11T07:21:21.711Z,45.72
2023-01-11T07:23:49.937Z,49.13
2023-01-11T07:26:18.078Z,47.17
2023-01-11T07:28:46.692Z,45.95
2023-01-11T07:31:14.963Z,44.83
2023-01-11T07:33:43.216Z,43.17
2023-01-11T07:36:11.621Z,44.28
2023-01-11T07:38:39.871Z,42.53
2023-01-11T07:41:27.056Z,47.15
2023-01-11T07:43:55.295Z,44.45
2023-01-11T07:46:23.530Z,51.47
2023-01-11T07:48:51.752Z,52.75
2023-01-11T07:51:24.224Z,45.67
2023-01-11T07:53:52.616Z,44.00
2023-01-11T07:56:23.456Z,47.63
2023-01-11T07:58:51.774Z,40.65
2023-01-11T08:01:20.427Z,53.13
2023-01-11T08:03:49.118Z,44.45
2023-01-11T08:06:18.357Z,49.28
2023-01-11T08:08:46.540Z,45.85
2023-01-11T08:11:33.169Z,46.15
2023-01-11T08:14:20.077Z,51.05
2023-01-11T08:16:48.287Z,46.65
2023-01-11T08:19:19.598Z,45.92
2023-01-11T08:21:48.569Z,45.80
2023-01-11T08:24:19.108Z,54.35
2023-01-11T08:26:47.549Z,47.55
2023-01-11T08:29:16.631Z,47.17
2023-01-11T08:31:48.693Z,45.22
2023-01-11T08:34:17.575Z,44.95
2023-01-11T08:36:45.862Z,49.58
2023-01-11T08:39:13.930Z,47.13
2023-01-11T08:41:42.345Z,49.30
2023-01-11T08:44:14.703Z,49.22
2023-01-11T08:46:43.889Z,43.97
2023-01-11T08:49:12.563Z,52.20
2023-01-11T08:51:41.701Z,50.22
2023-01-11T08:54:17.893Z,42.92
2023-01-11T08:56:46.073Z,44.25
2023-01-11T08:59:14.704Z,45.42
2023-01-11T09:01:43.529Z,42.63
2023-01-11T09:04:23.844Z,45.97
2023-01-11T09:06:55.198Z,41.53
2023-01-11T09:09:24.120Z,36.85
2023-01-11T09:11:55.147Z,42.72
2023-01-11T09:14:26.329Z,40.10
2023-01-11T09:16:55.364Z,40.38
2023-01-11T09:19:24.228Z,39.30
2023-01-11T09:21:52.504Z,40.38
2023-01-11T09:24:20.464Z,42.50
2023-01-11T09:26:51.004Z,34.72
2023-01-11T09:29:19.994Z,60.60
2023-01-11T09:31:48.172Z,48.08
2023-01-11T09:34:16.998Z,60.40
2023-01-11T09:36:47.917Z,59.63
2023-01-11T09:39:18.916Z,63.20
2023-01-11T09:41:51.429Z,95.65
2023-01-11T09:44:25.616Z,40.88
2023-01-11T09:47:10.970Z,44.90
2023-01-11T09:49:43.144Z,43.78
2023-01-11T09:52:39.957Z,45.17
2023-01-11T09:55:20.355Z,42.35
2023-01-11T09:58:03.485Z,45.30
2023-01-11T10:01:12.556Z,40.47
2023-01-11T10:04:16.653Z,43.95
2023-01-11T10:07:16.590Z,48.95
2023-01-11T10:18:40.288Z,44.65
2023-01-11T10:19:40.665Z,53.83
2023-01-11T10:22:23.640Z,48.17
2023-01-11T10:25:17.589Z,54.13
2023-01-11T10:28:00.842Z,49.65
2023-01-11T10:31:10.650Z,53.15
2023-01-11T10:34:10.689Z,47.28
2023-01-11T10:37:11.320Z,45.00
2023-01-11T10:40:13.262Z,47.53
2023-01-11T10:43:22.657Z,48.08
2023-01-11T10:46:26.924Z,44.40
2023-01-11T10:49:29.596Z,48.38
2023-01-11T10:52:14.147Z,36.92
2023-01-11T10:54:46.920Z,38.42
2023-01-11T10:57:59.722Z,34.53
2023-01-11T11:00:39.812Z,33.30
2023-01-11T11:03:54.625Z,34.72
2023-01-11T11:06:51.637Z,33.25
2023-01-11T11:09:40.718Z,26.25
2023-01-11T11:12:32.531Z,27.80
2023-01-11T11:15:13.990Z,28.55
2023-01-11T11:17:51.061Z,27.35
2023-01-11T11:20:29.099Z,26.67
2023-01-11T11:22:57.866Z,26.27
2023-01-11T11:25:38.821Z,26.13
2023-01-11T11:28:27.489Z,24.03
2023-01-11T11:31:00.225Z,25.90
2023-01-11T11:33:39.343Z,25.15
2023-01-11T11:36:11.894Z,23.52
2023-01-11T11:39:28.716Z,23.58
2023-01-11T11:42:27.678Z,20.05
2023-01-11T11:45:11.241Z,24.90
2023-01-11T11:47:39.418Z,21.25
2023-01-11T11:50:41.941Z,25.00
2023-01-11T11:53:08.589Z,30.10
2023-01-11T11:55:36.891Z,25.00
2023-01-11T11:58:13.377Z,26.75
2023-01-11T12:00:51.375Z,26.50
2023-01-11T12:03:30.727Z,29.52
2023-01-11T12:06:04.294Z,28.15
2023-01-11T12:08:36.427Z,26.05
2023-01-11T12:11:07.958Z,28.23
2023-01-11T12:13:40.762Z,27.58
2023-01-11T12:16:23.084Z,30.23
2023-01-11T12:18:51.541Z,25.17
2023-01-11T12:21:21.734Z,25.77
2023-01-11T12:24:23.859Z,29.17
2023-01-11T12:27:14.121Z,26.20
2023-01-11T12:29:48.439Z,27.77
2023-01-11T12:32:48.135Z,25.60
2023-01-11T12:35:19.524Z,26.80
2023-01-11T12:38:10.991Z,26.73
2023-01-11T12:40:48.158Z,27.33
2023-01-11T12:44:01.442Z,27.73
2023-01-11T12:46:59.678Z,28.33
2023-01-11T12:49:43.103Z,28.58
2023-01-11T12:52:37.101Z,30.15
2023-01-11T12:55:28.234Z,29.02
2023-01-11T12:58:53.429Z,24.93
2023-01-11T13:02:17.870Z,25.60
2023-01-11T13:05:55.720Z,31.73
2023-01-11T13:09:06.313Z,31.63
2023-01-11T13:12:25.333Z,24.25
2023-01-11T13:15:28.219Z,31.38
2023-01-11T13:18:31.984Z,29.65
2023-01-11T13:21:34.581Z,27.83
2023-01-11T13:24:16.351Z,30.98
2023-01-11T13:26:50.847Z,28.27
2023-01-11T13:29:32.898Z,26.48
2023-01-11T13:32:07.105Z,30.85
2023-01-11T13:35:18.941Z,27.13
2023-01-11T13:37:58.978Z,21.38
2023-01-11T13:40:44.167Z,18.20
2023-01-11T13:43:22.852Z,20.77
2023-01-11T13:46:00.311Z,21.67
2023-01-11T13:48:56.535Z,18.90
2023-01-11T13:51:54.767Z,17.45
2023-01-11T13:54:41.996Z,20.67
2023-01-11T13:57:56.235Z,20.35
2023-01-11T14:01:08.873Z,22.85
2023-01-11T14:03:43.153Z,22.10
2023-01-11T14:06:40.380Z,21.65
2023-01-11T14:09:54.665Z,21.48
2023-01-11T14:12:57.493Z,23.52
2023-01-11T14:15:41.929Z,26.90
2023-01-11T14:18:50.151Z,27.55
2023-01-11T14:21:54.878Z,23.83
2023-01-11T14:24:26.377Z,26.70
2023-01-11T14:27:28.303Z,25.75
2023-01-11T14:30:31.350Z,26.55
2023-01-11T14:33:25.802Z,22.48
2023-01-11T14:36:14.257Z,20.35
2023-01-11T14:39:05.756Z,19.88
2023-01-11T14:41:55.568Z,23.55
2023-01-11T14:44:43.312Z,21.73
2023-01-11T14:47:46.084Z,20.58
2023-01-11T14:50:53.668Z,17.15
2023-01-11T14:53:30.573Z,22.58
2023-01-11T14:55:58.997Z,23.20
2023-01-11T14:58:31.056Z,20.10
2023-01-11T15:00:59.176Z,19.48
2023-01-11T15:03:49.516Z,20.60
2023-01-11T15:06:21.511Z,21.95
2023-01-11T15:08:55.369Z,22.10
2023-01-11T15:11:25.324Z,24.23
2023-01-11T15:14:18.422Z,19.58
2023-01-11T15:17:15.508Z,26.70
2023-01-11T15:19:45.795Z,25.27
2023-01-11T15:22:34.940Z,20.63
2023-01-11T15:25:08.860Z,20.95
2023-01-11T15:27:40.461Z,18.23
2023-01-11T15:33:19.342Z,21.08
2023-01-11T15:35:57.137Z,20.83
2023-01-11T15:38:50.957Z,21.08
2023-01-11T15:42:06.585Z,15.55
2023-01-11T15:45:08.728Z,13.95
2023-01-11T15:50:59.267Z,17.55
2023-01-11T15:53:58.196Z,15.65
2023-01-11T15:57:16.468Z,18.17
2023-01-11T16:00:30.979Z,14.40
2023-01-11T16:03:51.576Z,15.90
2023-01-11T16:06:54.141Z,18.30
2023-01-11T16:09:50.550Z,22.05
2023-01-11T16:12:56.259Z,21.27
2023-01-11T16:16:00.441Z,23.38
2023-01-11T16:18:37.641Z,22.25
2023-01-11T16:21:38.994Z,22.88
2023-01-11T16:24:20.796Z,24.55
2023-01-11T16:26:58.961Z,26.42
2023-01-11T16:29:32.552Z,25.15
2023-01-11T16:32:08.075Z,22.08
2023-01-11T16:34:47.179Z,20.38
2023-01-11T16:37:34.043Z,19.02
2023-01-11T16:40:19.466Z,17.10
2023-01-11T16:43:18.870Z,16.33
2023-01-11T16:45:55.154Z,15.77
2023-01-11T16:48:24.531Z,20.23
2023-01-11T16:51:22.929Z,18.15
2023-01-11T16:53:59.438Z,22.25
2023-01-11T16:56:28.845Z,20.00
2023-01-11T16:59:15.436Z,22.45
2023-01-11T17:02:05.211Z,16.48
2023-01-11T17:04:54.548Z,21.98
2023-01-11T17:07:28.435Z,19.05
2023-01-11T17:10:30.204Z,21.33
2023-01-11T17:14:04.620Z,23.38
2023-01-11T17:16:46.114Z,32.03
2023-01-11T17:19:29.500Z,28.15
2023-01-11T17:22:27.918Z,23.70
2023-01-11T17:25:22.151Z,26.90
2023-01-11T17:28:07.060Z,30.63
2023-01-11T17:30:37.675Z,27.55
2023-01-11T17:33:05.943Z,24.80
2023-01-11T17:35:41.633Z,24.65
2023-01-11T17:38:14.920Z,19.50
2023-01-11T17:40:46.356Z,29.77
2023-01-11T17:43:44.879Z,25.30
2023-01-11T17:46:27.260Z,36.33
2023-01-11T17:49:00.893Z,25.17
2023-01-11T17:51:35.131Z,23.55
2023-01-11T17:54:03.764Z,18.90
2023-01-11T17:56:42.732Z,19.55
2023-01-11T17:59:24.548Z,25.83
2023-01-11T18:02:00.389Z,23.80
2023-01-11T18:04:31.537Z,23.42
2023-01-11T18:07:20.095Z,19.45
2023-01-11T18:09:57.339Z,21.08
2023-01-11T18:12:35.503Z,31.83
2023-01-11T18:15:07.669Z,21.55
2023-01-11T18:17:42.397Z,21.15
2023-01-11T18:20:37.994Z,23.50
2023-01-11T18:23:12.440Z,31.02
2023-01-11T18:25:40.735Z,15.98
2023-01-11T18:28:27.472Z,23.35
2023-01-11T18:31:02.147Z,20.27
2023-01-11T18:33:34.597Z,22.88
2023-01-11T18:36:18.727Z,24.95
2023-01-11T18:38:47.732Z,21.50
2023-01-11T18:41:36.234Z,23.98
2023-01-11T18:44:05.551Z,15.68
2023-01-11T18:46:34.338Z,18.48
2023-01-11T18:49:03.269Z,18.98
2023-01-11T18:51:42.191Z,22.63
2023-01-11T18:54:20.388Z,17.92
2023-01-11T18:56:49.519Z,17.35
2023-01-11T18:59:17.973Z,19.90
2023-01-11T19:01:56.536Z,23.60
2023-01-11T19:04:31.765Z,20.05
2023-01-11T19:07:01.347Z,20.40
2023-01-11T19:09:30.799Z,20.45
2023-01-11T19:11:59.511Z,23.88
2023-01-11T19:14:32.038Z,22.02
2023-01-11T19:17:01.563Z,22.75
2023-01-11T19:19:31.665Z,21.80
2023-01-11T19:22:03.013Z,24.13
2023-01-11T19:24:32.916Z,24.30
2023-01-11T19:27:01.595Z,26.08
2023-01-11T19:29:31.311Z,26.02
2023-01-11T19:32:00.348Z,26.13
2023-01-11T19:34:29.770Z,28.20
2023-01-11T19:36:58.333Z,24.23
2023-01-11T19:39:27.952Z,22.92
2023-01-11T19:42:01.702Z,25.40
2023-01-11T19:44:35.357Z,24.10
2023-01-11T19:47:12.054Z,28.55
2023-01-11T19:49:42.695Z,25.98
2023-01-11T19:52:13.855Z,21.48
2023-01-11T19:54:43.425Z,30.55
2023-01-11T19:57:14.883Z,25.65
2023-01-11T20:02:18.028Z,22.05
2023-01-11T20:04:47.581Z,23.10
2023-01-11T20:07:16.456Z,18.60
2023-01-11T20:09:45.293Z,19.30
2023-01-11T20:12:16.241Z,16.58
2023-01-11T20:14:46.823Z,16.52
2023-01-11T20:17:21.363Z,17.38
2023-01-11T20:19:54.923Z,14.75
2023-01-11T20:22:24.339Z,18.17
2023-01-11T20:24:53.005Z,16.65
2023-01-11T20:27:21.945Z,19.40
2023-01-11T20:29:50.257Z,17.33
2023-01-11T20:32:39.891Z,16.25
2023-01-11T20:35:08.863Z,17.42
2023-01-11T20:37:37.646Z,21.02
2023-01-11T20:40:07.201Z,13.95
2023-01-11T20:42:37.358Z,20.27
2023-01-11T20:45:07.067Z,18.15
2023-01-11T20:47:35.658Z,15.52
2023-01-11T20:50:04.774Z,17.30
2023-01-11T20:52:33.743Z,15.82
2023-01-11T20:55:02.493Z,14.70
2023-01-11T20:57:31.173Z,16.17
2023-01-11T20:59:59.773Z,15.98
2023-01-11T21:02:28.401Z,15.48
2023-01-11T21:04:57.641Z,15.65
2023-01-11T21:07:26.234Z,14.23
2023-01-11T21:09:54.640Z,17.98
2023-01-11T21:12:23.619Z,15.63
2023-01-11T21:14:52.075Z,15.65
2023-01-11T21:17:21.219Z,18.88
2023-01-11T21:19:51.110Z,14.10
2023-01-11T21:22:20.040Z,15.80
2023-01-11T21:24:48.620Z,15.13
2023-01-11T21:27:17.304Z,16.10
2023-01-11T21:29:46.002Z,16.35
2023-01-11T21:32:14.548Z,15.10
2023-01-11T21:34:43.182Z,15.50
2023-01-11T21:37:11.876Z,15.82
2023-01-11T21:39:40.081Z,18.02
2023-01-11T21:42:09.809Z,15.52
2023-01-11T21:44:38.596Z,16.38
2023-01-11T21:47:08.891Z,14.85
2023-01-11T21:49:37.363Z,16.25
2023-01-11T21:52:05.410Z,16.30
2023-01-11T21:54:33.682Z,16.27
2023-01-11T21:57:02.090Z,15.07
2023-01-11T21:59:33.703Z,25.42
2023-01-11T22:02:02.351Z,33.45
2023-01-11T22:04:30.723Z,19.15
2023-01-11T22:07:00.230Z,17.17
2023-01-11T22:09:29.295Z,19.92
2023-01-11T22:11:58.663Z,20.08
2023-01-11T22:14:27.214Z,16.13
2023-01-11T22:16:56.681Z,16.80
2023-01-11T22:19:25.227Z,20.27
2023-01-11T22:21:53.331Z,19.92
2023-01-11T22:24:22.646Z,19.58
2023-01-11T22:26:51.189Z,17.73
2023-01-11T22:29:20.256Z,18.30
2023-01-11T22:32:01.388Z,20.77
2023-01-11T22:34:29.690Z,20.02
2023-01-11T22:36:58.593Z,18.77
2023-01-11T22:39:29.947Z,21.30
2023-01-11T22:44:27.118Z,22.02
2023-01-11T22:46:55.648Z,19.08
2023-01-11T22:49:24.088Z,18.15
2023-01-11T22:51:52.245Z,18.50
2023-01-11T22:54:20.835Z,19.77
2023-01-11T22:56:49.484Z,23.42
2023-01-11T22:59:17.675Z,24.02
2023-01-11T23:01:46.134Z,23.98
2023-01-11T23:04:14.822Z,20.58
2023-01-11T23:06:43.645Z,17.75
2023-01-11T23:09:16.842Z,21.70
2023-01-11T23:12:04.338Z,20.60
2023-01-11T23:14:33.919Z,20.20
2023-01-11T23:17:07.834Z,21.58
2023-01-11T23:19:39.270Z,20.92
2023-01-11T23:22:09.475Z,22.10
2023-01-11T23:24:38.063Z,21.83
2023-01-11T23:27:06.860Z,19.48
2023-01-11T23:29:36.052Z,17.25
2023-01-11T23:32:04.509Z,20.30
2023-01-11T23:34:33.031Z,22.75
2023-01-11T23:37:01.099Z,23.50
2023-01-11T23:39:29.520Z,19.80
2023-01-11T23:42:15.985Z,18.20
2023-01-11T23:44:43.990Z,19.83
2023-01-11T23:47:22.388Z,18.42
2023-01-11T23:49:53.273Z,20.10
2023-01-11T23:52:26.434Z,20.17
2023-01-11T23:54:55.053Z,21.38
2023-01-11T23:57:25.957Z,14.68
2023-01-11T23:59:54.150Z,19.40
